createdAt,value
2018-06-10T00:01:43.126Z,16.70
2018-06-10T00:04:11.506Z,16.60
2018-06-10T00:06:39.997Z,16.60
2018-06-10T00:09:08.281Z,16.60
2018-06-10T00:11:36.723Z,16.60
2018-06-10T00:14:06.011Z,16.60
2018-06-10T00:21:30.305Z,16.50
2018-06-10T00:26:28.622Z,16.40
2018-06-10T00:57:36.201Z,16.10
2018-06-10T01:00:04.639Z,16.10
2018-06-10T01:02:33.090Z,16.10
2018-06-10T01:05:01.450Z,16.00
2018-06-10T01:10:10.301Z,16.00
2018-06-10T01:12:38.709Z,15.90
2018-06-10T01:15:07.247Z,15.90
2018-06-10T01:17:35.519Z,15.80
2018-06-10T01:22:32.605Z,15.80
2018-06-10T01:25:01.720Z,15.80
2018-06-10T01:27:36.666Z,15.80
2018-06-10T01:31:11.852Z,15.70
2018-06-10T03:26:09.461Z,16.20
2018-06-10T03:28:42.019Z,16.30
2018-06-10T03:31:26.647Z,16.30
2018-06-10T03:33:54.861Z,16.30
2018-06-10T03:36:23.053Z,16.30
2018-06-10T03:38:51.378Z,16.40
2018-06-10T03:41:19.796Z,16.40
2018-06-10T03:43:48.176Z,16.40
2018-06-10T03:46:16.510Z,16.50
2018-06-10T03:48:44.777Z,16.60
2018-06-10T03:56:09.463Z,16.80
2018-06-10T03:58:37.776Z,16.80
2018-06-10T04:01:05.874Z,16.90
2018-06-10T04:03:34.165Z,17.00
2018-06-10T04:06:02.457Z,17.00
2018-06-10T04:13:27.525Z,17.20
2018-06-10T04:15:56.413Z,17.20
2018-06-10T04:18:25.278Z,17.30
2018-06-10T04:20:54.368Z,17.40
2018-06-10T04:23:22.795Z,17.40
2018-06-10T04:28:19.288Z,17.50
2018-06-10T04:30:47.859Z,17.50
2018-06-10T04:33:21.764Z,17.60
2018-06-10T04:35:50.214Z,17.60
2018-06-10T04:38:18.512Z,17.80
2018-06-10T04:40:46.910Z,17.90
2018-06-10T04:48:11.366Z,18.00
2018-06-10T04:50:39.888Z,18.10
2018-06-10T04:58:04.240Z,18.20
2018-06-10T05:00:32.559Z,18.40
2018-06-10T05:03:00.859Z,18.50
2018-06-10T05:07:57.263Z,18.90
2018-06-10T05:10:28.583Z,19.00
2018-06-10T05:12:56.894Z,19.00
2018-06-10T05:15:25.242Z,19.10
2018-06-10T05:17:53.614Z,19.20
2018-06-10T05:22:50.114Z,19.20
2018-06-10T05:25:18.366Z,19.30
2018-06-10T05:27:46.814Z,19.30
2018-06-10T05:30:15.314Z,19.40
2018-06-10T05:32:43.694Z,19.50
2018-06-10T05:37:40.097Z,19.80
2018-06-10T05:42:36.502Z,20.00
2018-06-10T05:45:04.952Z,20.10
2018-06-10T05:47:33.168Z,20.20
2018-06-10T05:50:01.583Z,20.20
2018-06-10T05:54:58.083Z,20.30
2018-06-10T05:57:26.583Z,20.40
2018-06-10T05:59:54.984Z,20.40
2018-06-10T06:04:51.169Z,20.50
2018-06-10T06:07:20.033Z,20.60
2018-06-10T06:09:48.392Z,20.60
2018-06-10T06:12:16.675Z,20.60
2018-06-10T06:14:46.092Z,20.70
2018-06-10T06:17:14.251Z,20.70
2018-06-10T06:19:42.493Z,20.60
2018-06-10T06:22:11.626Z,20.60
2018-06-10T06:24:40.742Z,20.60
2018-06-10T06:27:11.505Z,20.70
2018-06-10T06:29:40.066Z,20.80
2018-06-10T06:34:37.892Z,20.80
2018-06-10T06:37:07.545Z,20.80
2018-06-10T06:39:36.024Z,20.80
2018-06-10T06:42:04.305Z,20.90
2018-06-10T06:44:32.519Z,21.00
2018-06-10T06:47:00.873Z,21.00
2018-06-10T06:49:29.097Z,21.10
2018-06-10T06:54:26.089Z,21.10
2018-06-10T06:56:54.407Z,21.10
2018-06-10T07:01:51.545Z,21.00
2018-06-10T07:04:20.199Z,21.10
2018-06-10T07:06:49.438Z,21.10
2018-06-10T07:09:17.941Z,21.00
2018-06-10T07:11:46.790Z,21.00
2018-06-10T07:19:11.198Z,21.20
2018-06-10T07:21:39.508Z,21.30
2018-06-10T07:24:09.453Z,21.50
2018-06-10T07:26:38.293Z,21.60
2018-06-10T07:29:07.281Z,21.80
2018-06-10T07:36:32.436Z,24.50
2018-06-10T07:39:00.766Z,25.90
2018-06-10T07:41:29.291Z,27.20
2018-06-10T07:43:57.586Z,28.50
2018-06-10T07:46:27.563Z,29.00
2018-06-10T07:48:55.922Z,29.30
2018-06-10T07:51:24.710Z,29.40
2018-06-10T07:53:52.905Z,29.40
2018-06-10T07:56:21.212Z,29.60
2018-06-10T07:58:49.695Z,30.40
2018-06-10T08:01:18.017Z,31.10
2018-06-10T08:06:14.418Z,32.80
2018-06-10T08:08:42.831Z,34.10
2018-06-10T08:11:12.344Z,35.60
2018-06-10T08:13:39.899Z,36.90
2018-06-10T08:16:13.758Z,37.40
2018-06-10T08:18:41.919Z,37.40
2018-06-10T08:21:10.133Z,36.50
2018-06-10T08:23:38.528Z,35.40
2018-06-10T08:26:07.034Z,34.60
2018-06-10T08:28:35.445Z,33.90
2018-06-10T08:31:03.798Z,33.30
2018-06-10T08:33:32.193Z,32.60
2018-06-10T08:36:00.594Z,32.10
2018-06-10T08:38:28.922Z,31.60
2018-06-10T08:43:25.423Z,31.00
2018-06-10T08:45:53.690Z,30.70
2018-06-10T08:48:22.152Z,30.50
2018-06-10T08:50:51.335Z,30.30
2018-06-10T08:53:19.616Z,30.20
2018-06-10T08:58:16.319Z,29.80
2018-06-10T09:00:45.234Z,29.60
2018-06-10T09:05:41.812Z,29.20
2018-06-10T09:08:10.260Z,29.00
2018-06-10T09:10:38.508Z,28.90
2018-06-10T09:13:06.926Z,28.70
2018-06-10T09:18:03.346Z,28.40
2018-06-10T09:20:31.575Z,28.30
2018-06-10T09:23:00.019Z,28.20
2018-06-10T09:25:28.662Z,28.10
2018-06-10T09:27:57.000Z,28.10
2018-06-10T09:30:25.441Z,28.10
2018-06-10T09:32:53.766Z,28.10
2018-06-10T09:35:22.241Z,28.10
2018-06-10T09:37:50.594Z,28.00
2018-06-10T09:40:18.927Z,28.00
2018-06-10T09:42:47.363Z,28.10
2018-06-10T09:45:15.924Z,28.10
2018-06-10T09:47:44.535Z,28.10
2018-06-10T09:50:13.150Z,28.20
2018-06-10T09:52:41.427Z,28.30
2018-06-10T09:55:10.619Z,28.20
2018-06-10T09:57:39.334Z,28.10
2018-06-10T10:00:07.701Z,28.10
2018-06-10T10:02:36.045Z,28.10
2018-06-10T10:05:04.535Z,28.20
2018-06-10T10:07:32.748Z,28.30
2018-06-10T10:12:29.852Z,28.50
2018-06-10T10:14:58.272Z,28.50
2018-06-10T10:17:26.662Z,28.70
2018-06-10T10:19:54.926Z,28.80
2018-06-10T10:22:23.324Z,29.00
2018-06-10T10:24:51.638Z,29.30
2018-06-10T10:27:20.052Z,29.60
2018-06-10T10:29:48.332Z,29.80
2018-06-10T10:34:46.181Z,29.50
2018-06-10T10:37:14.679Z,29.30
2018-06-10T10:39:43.082Z,29.30
2018-06-10T10:42:11.307Z,29.30
2018-06-10T10:44:40.008Z,29.10
2018-06-10T10:47:08.481Z,29.00
2018-06-10T10:49:36.972Z,28.90
2018-06-10T11:02:20.450Z,29.20
2018-06-10T11:04:48.991Z,29.20
2018-06-10T11:07:17.343Z,29.00
2018-06-10T11:09:45.649Z,29.10
2018-06-10T11:12:18.136Z,29.10
2018-06-10T11:14:50.056Z,29.20
2018-06-10T11:17:25.226Z,29.30
2018-06-10T11:19:53.673Z,29.40
2018-06-10T11:22:22.056Z,29.50
2018-06-10T11:24:50.503Z,29.40
2018-06-10T11:27:18.949Z,29.40
2018-06-10T11:29:47.336Z,29.20
2018-06-10T11:32:16.585Z,28.90
2018-06-10T11:34:45.092Z,28.60
2018-06-10T11:37:13.483Z,28.40
2018-06-10T11:44:40.328Z,28.40
2018-06-10T11:47:08.523Z,28.50
2018-06-10T11:50:10.264Z,28.60
2018-06-10T11:52:38.763Z,28.70
2018-06-10T11:57:35.588Z,29.00
2018-06-10T12:00:04.251Z,29.10
2018-06-10T12:02:32.630Z,29.10
2018-06-10T12:05:00.985Z,29.00
2018-06-10T12:07:31.470Z,28.90
2018-06-10T12:09:59.711Z,28.70
2018-06-10T12:12:28.103Z,28.50
2018-06-10T12:14:56.395Z,28.30
2018-06-10T12:17:24.701Z,28.10
2018-06-10T12:22:22.018Z,27.70
2018-06-10T12:24:50.289Z,27.80
2018-06-10T12:27:18.695Z,27.90
2018-06-10T12:29:47.445Z,28.00
2018-06-10T12:32:15.817Z,28.10
2018-06-10T12:34:44.216Z,28.30
2018-06-10T12:37:13.247Z,28.40
2018-06-10T12:39:42.125Z,28.40
2018-06-10T12:42:11.168Z,28.40
2018-06-10T12:44:39.827Z,28.40
2018-06-10T12:47:08.154Z,28.50
2018-06-10T12:49:37.028Z,28.30
2018-06-10T12:52:06.048Z,28.20
2018-06-10T12:54:34.582Z,28.20
2018-06-10T12:59:31.976Z,28.40
2018-06-10T13:02:00.815Z,28.50
2018-06-10T13:04:29.715Z,28.60
2018-06-10T13:06:58.200Z,28.50
2018-06-10T13:09:26.590Z,28.40
2018-06-10T13:11:54.891Z,28.20
2018-06-10T13:16:56.799Z,27.90
2018-06-10T13:38:14.518Z,24.60
2018-06-10T13:40:42.732Z,24.30
2018-06-10T13:43:11.001Z,24.00
2018-06-10T13:45:40.263Z,23.80
2018-06-10T13:48:08.651Z,23.50
2018-06-10T13:50:37.270Z,23.30
2018-06-10T13:53:05.988Z,23.10
2018-06-10T13:55:34.980Z,23.00
2018-06-10T13:58:03.623Z,23.10
2018-06-10T14:00:31.931Z,23.20
2018-06-10T14:03:00.415Z,23.40
2018-06-10T14:05:29.574Z,23.50
2018-06-10T14:07:57.977Z,23.60
2018-06-10T14:10:26.264Z,23.70
2018-06-10T14:12:54.478Z,23.80
2018-06-10T14:15:24.109Z,23.90
2018-06-10T14:17:53.015Z,24.10
2018-06-10T14:20:21.610Z,24.20
2018-06-10T14:22:49.840Z,24.30
2018-06-10T14:25:18.136Z,24.30
2018-06-10T14:27:46.458Z,24.30
2018-06-10T14:30:15.015Z,24.20
2018-06-10T14:35:11.316Z,24.20
2018-06-10T14:37:39.712Z,24.40
2018-06-10T14:40:08.437Z,24.70
2018-06-10T14:42:36.811Z,25.00
2018-06-10T14:50:01.199Z,26.10
2018-06-10T14:52:29.587Z,26.30
2018-06-10T14:54:58.047Z,26.40
2018-06-10T14:57:26.498Z,26.30
2018-06-10T14:59:55.730Z,26.10
2018-06-10T15:02:24.510Z,25.90
2018-06-10T15:04:52.830Z,25.80
2018-06-10T15:07:21.740Z,25.50
2018-06-10T15:09:50.120Z,25.30
2018-06-10T15:14:47.032Z,25.00
2018-06-10T15:17:15.434Z,25.00
2018-06-10T15:19:43.927Z,25.10
2018-06-10T15:22:13.042Z,25.20
2018-06-10T15:27:09.748Z,25.30
2018-06-10T15:29:38.182Z,25.60
2018-06-10T15:32:07.265Z,25.80
2018-06-10T15:34:35.871Z,26.00
2018-06-10T15:37:04.234Z,26.00
2018-06-10T15:39:32.673Z,25.90
2018-06-10T15:42:00.973Z,25.90
2018-06-10T15:44:29.365Z,25.90
2018-06-10T15:46:57.769Z,26.00
2018-06-10T15:49:26.143Z,26.00
2018-06-10T15:51:54.479Z,26.00
2018-06-10T15:54:22.753Z,26.10
2018-06-10T15:59:19.102Z,26.00
2018-06-10T16:01:47.345Z,26.00
2018-06-10T16:04:15.782Z,26.10
2018-06-10T16:06:44.043Z,26.00
2018-06-10T16:09:12.448Z,25.90
2018-06-10T16:11:40.816Z,25.80
2018-06-10T16:16:37.440Z,25.70
2018-06-10T16:19:05.757Z,25.70
2018-06-10T16:21:34.167Z,25.80
2018-06-10T16:24:02.530Z,25.80
2018-06-10T16:26:30.927Z,25.90
2018-06-10T16:31:27.412Z,26.00
2018-06-10T16:36:23.953Z,26.00
2018-06-10T16:38:52.451Z,26.00
2018-06-10T16:41:21.133Z,26.00
2018-06-10T16:43:49.835Z,25.90
2018-06-10T16:46:18.371Z,25.80
2018-06-10T16:48:46.893Z,25.70
2018-06-10T16:51:15.338Z,25.60
2018-06-10T16:53:43.771Z,25.30
2018-06-10T16:56:12.146Z,25.20
2018-06-10T16:58:40.725Z,25.10
2018-06-10T17:01:09.172Z,25.00
2018-06-10T17:03:37.541Z,24.80
2018-06-10T17:06:05.840Z,24.80
2018-06-10T17:08:34.397Z,24.60
2018-06-10T17:11:02.653Z,24.50
2018-06-10T17:13:30.938Z,24.40
2018-06-10T17:15:59.400Z,24.20
2018-06-10T17:20:56.199Z,23.90
2018-06-10T17:23:24.996Z,23.80
2018-06-10T17:25:53.462Z,23.70
2018-06-10T17:28:21.983Z,23.60
2018-06-10T17:30:51.567Z,23.50
2018-06-10T17:33:19.996Z,23.40
2018-06-10T17:35:48.393Z,23.30
2018-06-10T17:38:17.247Z,23.10
2018-06-10T17:40:46.619Z,22.80
2018-06-10T17:43:14.900Z,22.30
2018-06-10T17:45:43.355Z,21.90
2018-06-10T17:48:14.361Z,21.50
2018-06-10T17:50:43.860Z,21.10
2018-06-10T17:53:12.430Z,20.80
2018-06-10T17:55:42.126Z,20.60
2018-06-10T17:58:11.462Z,20.30
2018-06-10T18:00:41.328Z,20.20
2018-06-10T18:05:43.384Z,20.20
2018-06-10T18:08:13.656Z,20.30
2018-06-10T18:10:43.143Z,20.40
2018-06-10T18:15:41.154Z,20.80
2018-06-10T18:18:10.906Z,21.10
2018-06-10T18:20:40.443Z,21.30
2018-06-10T18:23:09.781Z,21.40
2018-06-10T18:25:38.227Z,21.40
2018-06-10T18:28:07.917Z,21.40
2018-06-10T18:30:38.919Z,21.40
2018-06-10T18:33:10.508Z,21.40
2018-06-10T18:35:41.581Z,21.40
2018-06-10T18:38:19.082Z,21.30
2018-06-10T18:40:49.058Z,21.20
2018-06-10T18:43:19.593Z,21.10
2018-06-10T18:45:49.060Z,21.00
2018-06-10T18:48:17.880Z,20.90
2018-06-10T18:50:46.678Z,20.70
2018-06-10T18:55:45.460Z,20.50
2018-06-10T19:00:46.631Z,20.20
2018-06-10T19:03:15.736Z,20.10
2018-06-10T19:05:45.509Z,20.00
2018-06-10T19:10:44.772Z,19.80
2018-06-10T19:13:13.986Z,19.80
2018-06-10T19:15:43.232Z,19.70
2018-06-10T19:18:12.484Z,19.60
2018-06-10T19:20:41.499Z,19.50
2018-06-10T19:23:10.221Z,19.40
2018-06-10T19:25:40.103Z,19.30
2018-06-10T19:28:09.769Z,19.10
2018-06-10T19:30:39.479Z,19.00
2018-06-10T19:35:38.250Z,18.70
2018-06-10T19:38:09.140Z,18.60
2018-06-10T19:40:39.415Z,18.50
2018-06-10T19:43:09.056Z,18.40
2018-06-10T19:48:08.379Z,18.30
2018-06-10T19:53:05.752Z,18.20
2018-06-10T19:55:35.268Z,18.20
2018-06-10T19:58:04.810Z,18.10
2018-06-10T20:05:36.142Z,17.90
2018-06-10T20:08:04.998Z,17.90
2018-06-10T20:10:34.880Z,17.80
2018-06-10T20:13:04.693Z,17.80
2018-06-10T20:15:33.453Z,17.70
2018-06-10T20:18:02.773Z,17.70
2018-06-10T20:20:37.148Z,17.70
2018-06-10T20:23:11.690Z,17.60
2018-06-10T20:25:44.170Z,17.60
2018-06-10T20:28:15.966Z,17.60
2018-06-10T20:30:47.649Z,17.50
2018-06-10T20:33:18.734Z,17.50
2018-06-10T20:35:47.779Z,17.40
2018-06-10T20:43:13.129Z,17.30
2018-06-10T20:45:41.841Z,17.30
2018-06-10T20:48:10.245Z,17.30
2018-06-10T20:50:41.258Z,17.20
2018-06-10T20:53:09.703Z,17.20
2018-06-10T20:55:38.151Z,17.20
2018-06-10T20:58:15.052Z,17.20
2018-06-10T21:00:43.822Z,17.20
2018-06-10T21:03:13.500Z,17.30
2018-06-10T21:05:42.000Z,17.40
2018-06-10T21:08:10.635Z,17.40
2018-06-10T21:10:38.981Z,17.50
2018-06-10T21:15:36.817Z,17.50
2018-06-10T21:20:33.725Z,17.60
2018-06-10T21:23:02.227Z,17.60
2018-06-10T21:25:30.726Z,17.60
2018-06-10T21:27:59.184Z,17.60
2018-06-10T21:30:27.506Z,17.60
2018-06-10T21:35:24.102Z,17.50
2018-06-10T21:37:53.216Z,17.50
2018-06-10T21:42:49.533Z,17.40
2018-06-10T21:45:17.876Z,17.40
2018-06-10T21:47:46.423Z,17.40
2018-06-10T21:50:14.856Z,17.40
2018-06-10T21:52:43.236Z,17.30
2018-06-10T21:55:11.588Z,17.30
2018-06-10T21:57:39.818Z,17.30
2018-06-10T22:00:18.646Z,17.30
2018-06-10T22:02:46.755Z,17.30
2018-06-10T22:05:16.715Z,17.20
2018-06-10T22:07:44.948Z,17.20
2018-06-10T22:10:13.272Z,17.20
2018-06-10T22:12:41.751Z,17.10
2018-06-10T22:15:10.055Z,17.10
2018-06-10T22:20:11.363Z,17.10
2018-06-10T22:22:39.732Z,17.10
2018-06-10T22:25:08.076Z,17.10
2018-06-10T22:27:36.436Z,17.10
2018-06-10T22:30:05.061Z,17.10
2018-06-10T22:37:29.118Z,17.00
2018-06-10T22:39:57.419Z,17.00
2018-06-10T22:42:25.941Z,17.00
2018-06-10T22:44:54.214Z,17.00
2018-06-10T22:47:22.503Z,17.00
2018-06-10T22:49:50.644Z,17.00
2018-06-10T22:52:19.753Z,17.00
2018-06-10T22:54:48.130Z,17.00
2018-06-10T22:57:16.565Z,17.10
2018-06-10T22:59:44.933Z,17.20
2018-06-10T23:04:43.567Z,17.20
2018-06-10T23:09:40.073Z,17.20
2018-06-10T23:12:08.447Z,17.20
2018-06-10T23:14:36.752Z,17.10
2018-06-10T23:17:05.157Z,17.10
2018-06-10T23:19:34.121Z,17.10
2018-06-10T23:22:02.494Z,17.10
2018-06-10T23:24:30.553Z,17.10
2018-06-10T23:29:26.954Z,17.20
2018-06-10T23:34:23.230Z,17.30
2018-06-10T23:36:51.557Z,17.30
2018-06-10T23:39:19.948Z,17.30
2018-06-10T23:41:48.366Z,17.30
2018-06-10T23:44:16.649Z,17.30
2018-06-10T23:46:45.032Z,17.30
2018-06-10T23:49:14.925Z,17.30
2018-06-10T23:51:44.209Z,17.30
2018-06-10T23:54:13.006Z,17.30
2018-06-10T23:56:41.348Z,17.20
2018-06-10T23:59:10.080Z,17.20
